Time;durP1;ratioP1;P1;durP2;ratioP2;P2;SDS_P1;SDS_P2;PMS_P1;PMS_P2;Temp;Humidity;BMP_temperature;BMP_pressure;BME280_temperature;BME280_humidity;BME280_pressure;Samples;Min_cycle;Max_cycle;Signal;HPM_P1;HPM_P2
2022/07/14 00:00:05;;;;;;;6.97;3.77;;;;;;;20.95;79.51;98460.88;4106719;28;20999;-82
2022/07/14 00:02:08;;;;;;;5.10;3.37;;;;;;;20.92;80.87;98448.75;4124418;28;21255;-81
2022/07/14 00:04:12;;;;;;;3.40;3.10;;;;;;;20.84;81.38;98442.59;4126582;28;20676;-81
2022/07/14 00:06:16;;;;;;;3.60;3.30;;;;;;;20.77;80.01;98452.16;4112614;28;20667;-82
2022/07/14 00:08:19;;;;;;;4.20;3.23;;;;;;;20.71;81.21;98450.16;4106903;28;20660;-81
2022/07/14 00:10:22;;;;;;;3.73;3.10;;;;;;;20.70;79.98;98452.97;4110438;28;20712;-82
2022/07/14 00:12:26;;;;;;;6.70;3.87;;;;;;;20.65;80.28;98439.31;4109955;28;20740;-82
2022/07/14 00:14:29;;;;;;;4.70;3.20;;;;;;;20.65;80.24;98437.50;4129209;28;21992;-81
2022/07/14 00:16:32;;;;;;;5.50;3.40;;;;;;;20.63;80.94;98444.78;4108723;28;20656;-81
2022/07/14 00:18:37;;;;;;;5.07;3.80;;;;;;;20.63;79.64;98441.31;4111518;28;20632;-82
2022/07/14 00:20:41;;;;;;;6.17;3.23;;;;;;;20.57;80.23;98434.81;4108181;28;20732;-81
2022/07/14 00:22:45;;;;;;;6.93;3.90;;;;;;;20.60;81.30;98436.31;4125527;28;21297;-81
2022/07/14 00:24:50;;;;;;;4.53;3.50;;;;;;;20.61;80.61;98422.91;4108848;28;20732;-81
2022/07/14 00:26:53;;;;;;;7.40;3.50;;;;;;;20.61;80.67;98432.66;4103428;28;21200;-81
2022/07/14 00:28:56;;;;;;;4.30;3.53;;;;;;;20.60;82.16;98431.84;4126732;28;21249;-82
2022/07/14 00:31:03;;;;;;;4.33;3.60;;;;;;;20.59;80.32;98435.47;4123411;28;20640;-82
2022/07/14 00:33:07;;;;;;;3.63;3.33;;;;;;;20.58;82.37;98428.53;4111090;28;20641;-82
2022/07/14 00:35:10;;;;;;;4.93;3.67;;;;;;;20.55;81.02;98428.84;4109929;28;20645;-82
2022/07/14 00:37:15;;;;;;;4.67;3.67;;;;;;;20.52;82.27;98425.66;4111521;28;20645;-81
2022/07/14 00:39:19;;;;;;;6.23;4.23;;;;;;;20.51;81.11;98419.53;4125241;28;20691;-82
2022/07/14 00:41:23;;;;;;;3.77;3.47;;;;;;;20.50;80.75;98419.69;4107562;28;21289;-82
2022/07/14 00:43:26;;;;;;;4.27;3.70;;;;;;;20.49;80.96;98420.66;4125573;28;20975;-81
2022/07/14 00:45:29;;;;;;;6.63;3.50;;;;;;;20.47;81.29;98425.31;4123290;28;20627;-82
2022/07/14 00:47:32;;;;;;;6.10;3.63;;;;;;;20.45;81.18;98424.66;4109477;28;20700;-81
2022/07/14 00:49:35;;;;;;;5.97;3.50;;;;;;;20.42;80.57;98422.31;4108151;28;21072;-81
2022/07/14 00:51:38;;;;;;;4.93;3.40;;;;;;;20.41;82.44;98425.94;4124005;28;21051;-82
2022/07/14 00:53:43;;;;;;;7.67;3.50;;;;;;;20.40;80.29;98430.41;4109539;28;20641;-82
2022/07/14 00:55:46;;;;;;;5.20;3.60;;;;;;;20.36;81.74;98415.81;4110756;28;20632;-81
2022/07/14 00:57:50;;;;;;;4.40;3.70;;;;;;;20.31;82.46;98419.06;4104462;28;20981;-81
2022/07/14 00:59:53;;;;;;;5.80;3.27;;;;;;;20.25;81.87;98417.06;4108857;28;20727;-81
2022/07/14 01:01:56;;;;;;;5.97;3.33;;;;;;;20.23;81.92;98416.38;4123719;28;20644;-81
2022/07/14 01:04:00;;;;;;;4.33;3.57;;;;;;;20.19;80.53;98428.28;4127582;28;20627;-82
2022/07/14 01:06:04;;;;;;;3.93;3.53;;;;;;;20.17;81.96;98415.19;4123435;28;21301;-82
2022/07/14 01:08:07;;;;;;;4.00;3.50;;;;;;;20.14;82.29;98412.03;4126575;28;20638;-82
2022/07/14 01:10:12;;;;;;;4.33;3.47;;;;;;;20.05;82.27;98411.13;4127383;28;20753;-82
2022/07/14 01:12:15;;;;;;;5.47;3.40;;;;;;;19.97;82.01;98415.56;4122676;28;20690;-81
2022/07/14 01:14:18;;;;;;;6.13;3.50;;;;;;;19.90;82.86;98419.78;4124477;28;20640;-81
2022/07/14 01:16:22;;;;;;;5.10;3.57;;;;;;;19.85;81.97;98414.09;4105938;28;20676;-81
2022/07/14 01:18:25;;;;;;;6.03;3.90;;;;;;;19.83;82.21;98424.03;4108745;28;20712;-81
2022/07/14 01:20:28;;;;;;;4.40;3.60;;;;;;;19.80;83.15;98415.53;4124092;28;20626;-81
2022/07/14 01:22:33;;;;;;;4.17;3.60;;;;;;;19.77;82.93;98419.34;4106801;28;20655;-81
2022/07/14 01:24:36;;;;;;;5.50;3.67;;;;;;;19.74;82.65;98413.50;4105693;28;20697;-81
2022/07/14 01:26:39;;;;;;;7.27;3.90;;;;;;;19.72;82.27;98416.28;4120958;28;20632;-81
2022/07/14 01:28:43;;;;;;;4.57;3.80;;;;;;;19.72;83.17;98424.25;4106903;28;20644;-82
2022/07/14 01:30:49;;;;;;;4.73;3.57;;;;;;;19.73;83.81;98414.50;4113703;28;20695;-82
2022/07/14 01:32:52;;;;;;;3.70;3.30;;;;;;;19.74;82.80;98414.34;4125087;28;20647;-81
2022/07/14 01:34:55;;;;;;;3.90;3.60;;;;;;;19.74;82.44;98410.84;4112030;28;20625;-82
2022/07/14 01:36:58;;;;;;;4.10;3.70;;;;;;;19.74;83.77;98408.19;4109681;28;20726;-81
2022/07/14 01:39:04;;;;;;;4.97;3.77;;;;;;;19.71;82.87;98412.00;4123091;28;20630;-82
2022/07/14 01:41:07;;;;;;;6.07;3.90;;;;;;;19.68;82.33;98412.31;4110142;28;20825;-81
2022/07/14 01:43:11;;;;;;;4.90;3.80;;;;;;;19.66;83.78;98411.63;4121383;28;21094;-82
2022/07/14 01:45:14;;;;;;;4.70;3.73;;;;;;;19.62;83.12;98409.44;4108450;28;20636;-81
2022/07/14 01:47:18;;;;;;;4.80;4.20;;;;;;;19.61;82.63;98413.06;4107598;28;21004;-82
2022/07/14 01:49:21;;;;;;;4.10;3.70;;;;;;;19.60;82.63;98408.75;4125446;28;20756;-81
2022/07/14 01:51:25;;;;;;;4.43;3.90;;;;;;;19.59;82.55;98407.09;4126419;28;20706;-82
2022/07/14 01:53:28;;;;;;;6.33;3.73;;;;;;;19.56;83.01;98404.75;4112321;28;21067;-81
2022/07/14 01:55:34;;;;;;;5.80;4.10;;;;;;;19.50;83.29;98406.19;4112740;28;20695;-81
2022/07/14 01:57:37;;;;;;;4.87;3.90;;;;;;;19.41;83.24;98399.16;4110721;28;20633;-81
2022/07/14 01:59:40;;;;;;;7.20;3.50;;;;;;;19.32;83.50;98404.53;4109009;28;20631;-81
2022/07/14 02:01:44;;;;;;;4.17;3.43;;;;;;;19.23;83.72;98405.44;4128587;28;20726;-82
2022/07/14 02:03:49;;;;;;;4.50;4.10;;;;;;;19.18;83.39;98393.63;4111816;28;21238;-82
2022/07/14 02:05:52;;;;;;;4.43;3.73;;;;;;;19.17;83.36;98399.91;4111686;28;20671;-81
2022/07/14 02:07:55;;;;;;;4.03;3.63;;;;;;;19.16;84.25;98401.72;4106911;28;20631;-82
2022/07/14 02:12:29;;;;;;;5.30;4.17;;;;;;;19.14;84.24;98397.56;4112596;28;20619;-81
2022/07/14 02:14:34;;;;;;;3.63;3.30;;;;;;;19.11;84.29;98390.78;4110135;28;20671;-81
2022/07/14 02:16:38;;;;;;;4.27;3.70;;;;;;;19.09;83.85;98400.69;4108018;28;21253;-82
2022/07/14 02:18:41;;;;;;;4.13;3.73;;;;;;;19.09;83.27;98399.81;4126189;28;20673;-81
2022/07/14 02:20:45;;;;;;;4.00;3.60;;;;;;;19.05;84.09;98394.00;4109825;28;20628;-82
2022/07/14 02:22:49;;;;;;;5.60;3.80;;;;;;;19.01;83.75;98390.00;4126284;28;21093;-81
2022/07/14 02:24:52;;;;;;;5.20;4.10;;;;;;;18.94;84.19;98393.34;4110895;28;20646;-81
2022/07/14 02:26:55;;;;;;;4.40;3.60;;;;;;;18.89;84.24;98387.69;4109226;28;20723;-81
2022/07/14 02:29:01;;;;;;;14.80;4.60;;;;;;;18.88;84.25;98390.47;4128531;28;20681;-82
2022/07/14 02:31:04;;;;;;;5.50;3.83;;;;;;;18.85;84.31;98388.94;4123078;28;20674;-81
2022/07/14 02:33:08;;;;;;;5.00;3.90;;;;;;;18.82;84.31;98391.06;4110237;28;20643;-82
2022/07/14 02:35:12;;;;;;;4.30;3.50;;;;;;;18.81;84.76;98387.59;4112746;28;20646;-81
2022/07/14 02:37:15;;;;;;;5.47;3.60;;;;;;;18.78;84.42;98387.88;4127198;28;20637;-81
2022/07/14 02:39:18;;;;;;;4.33;3.90;;;;;;;18.75;84.74;98385.53;4130894;28;20697;-81
2022/07/14 02:41:21;;;;;;;3.97;3.57;;;;;;;18.73;84.45;98386.66;4111377;28;21206;-81
2022/07/14 02:43:26;;;;;;;4.00;3.60;;;;;;;18.70;84.77;98379.88;4108555;28;21251;-82
2022/07/14 02:45:30;;;;;;;4.50;3.90;;;;;;;18.67;85.63;98377.53;4123996;28;20627;-81
2022/07/14 02:47:34;;;;;;;4.80;4.30;;;;;;;18.65;84.70;98382.09;4109232;28;20721;-81
2022/07/14 02:49:37;;;;;;;6.50;3.70;;;;;;;18.64;85.08;98388.41;4111671;28;20745;-81
2022/07/14 02:51:40;;;;;;;4.67;4.00;;;;;;;18.62;84.73;98381.59;4110080;28;20636;-81
2022/07/14 02:53:43;;;;;;;5.17;3.47;;;;;;;18.59;84.68;98382.69;4093139;29;21227;-81
2022/07/14 02:55:47;;;;;;;5.20;3.57;;;;;;;18.56;85.30;98384.81;4108952;28;20632;-81
2022/07/14 02:57:50;;;;;;;4.20;3.77;;;;;;;18.53;84.61;98379.81;4125871;28;20644;-81
2022/07/14 02:59:53;;;;;;;4.63;3.83;;;;;;;18.51;84.77;98381.78;4110029;28;20711;-81
2022/07/14 03:01:57;;;;;;;4.70;3.90;;;;;;;18.49;84.38;98378.44;4109704;28;21216;-81
2022/07/14 03:04:00;;;;;;;4.57;3.63;;;;;;;18.42;84.89;98386.13;4109151;28;20636;-82
2022/07/14 03:06:11;;;;;;;5.50;3.97;;;;;;;18.40;84.84;98389.06;4106702;28;20673;-81
2022/07/14 03:08:14;;;;;;;4.30;3.90;;;;;;;18.36;84.67;98380.59;4124679;28;20680;-82
2022/07/14 03:10:17;;;;;;;4.80;3.80;;;;;;;18.31;85.45;98382.84;4123134;28;20667;-82
2022/07/14 03:12:22;;;;;;;4.27;3.40;;;;;;;18.29;84.72;98373.41;4110129;28;20639;-82
2022/07/14 03:14:25;;;;;;;4.13;3.73;;;;;;;18.28;84.83;98379.66;4123926;28;20638;-82
2022/07/14 03:16:28;;;;;;;4.90;4.10;;;;;;;18.27;85.05;98384.09;4124581;28;20659;-82
2022/07/14 03:18:40;;;;;;;5.20;3.80;;;;;;;18.25;84.56;98385.22;4108132;28;20790;-82
2022/07/14 03:20:45;;;;;;;7.93;4.10;;;;;;;18.22;85.00;98383.72;4108025;28;20669;-82
2022/07/14 03:22:49;;;;;;;4.17;3.73;;;;;;;18.17;85.05;98378.00;4107321;28;20638;-81
2022/07/14 03:24:58;;;;;;;4.60;4.03;;;;;;;18.11;85.01;98375.09;4106294;28;20668;-81
2022/07/14 03:27:03;;;;;;;4.40;3.80;;;;;;;18.10;84.83;98373.41;4126896;28;21055;-82
2022/07/14 03:29:07;;;;;;;5.43;3.70;;;;;;;18.10;85.47;98373.41;4128586;28;20641;-81
2022/07/14 03:31:11;;;;;;;4.57;4.10;;;;;;;18.09;85.11;98375.25;4122883;28;21266;-81
2022/07/14 03:33:15;;;;;;;5.37;3.77;;;;;;;18.08;83.94;98372.75;4112165;28;20693;-81
2022/07/14 03:35:20;;;;;;;5.87;3.70;;;;;;;18.08;85.01;98367.47;4108424;28;20638;-81
2022/07/14 03:37:23;;;;;;;6.50;4.00;;;;;;;18.08;85.07;98372.75;4107658;28;21017;-82
2022/07/14 03:39:30;;;;;;;3.73;3.33;;;;;;;18.07;85.48;98365.78;4092840;29;21069;-82
2022/07/14 03:41:33;;;;;;;5.20;3.77;;;;;;;18.00;84.86;98362.91;4128487;28;20642;-81
2022/07/14 03:43:36;;;;;;;5.50;3.47;;;;;;;17.96;84.70;98365.97;4092630;28;20719;-81
2022/07/14 03:45:40;;;;;;;5.20;3.60;;;;;;;17.94;85.70;98371.38;4108089;28;20645;-81
2022/07/14 03:47:44;;;;;;;4.47;3.53;;;;;;;17.94;85.14;98371.38;4111190;28;20728;-81
2022/07/14 03:49:48;;;;;;;3.70;3.30;;;;;;;17.96;84.52;98365.97;4129215;28;20648;-85
2022/07/14 03:51:56;;;;;;;4.70;3.67;;;;;;;17.97;85.46;98367.63;4125990;28;20657;-80
2022/07/14 03:54:00;;;;;;;5.43;4.00;;;;;;;17.98;84.48;98378.06;4127632;28;20705;-81
2022/07/14 03:56:05;;;;;;;5.37;3.50;;;;;;;17.98;84.08;98375.41;4106173;28;20653;-82
2022/07/14 03:58:20;;;;;;;4.90;3.73;;;;;;;17.97;85.25;98371.09;4125364;28;20767;-82
2022/07/14 04:00:24;;;;;;;4.60;3.83;;;;;;;17.95;85.17;98372.22;4123135;28;20699;-82
2022/07/14 04:02:27;;;;;;;6.23;4.10;;;;;;;17.95;85.02;98382.78;4111041;28;20618;-82
2022/07/14 04:04:30;;;;;;;4.40;4.00;;;;;;;17.96;84.85;98379.97;4106351;28;20733;-83
2022/07/14 04:06:33;;;;;;;5.77;4.27;;;;;;;18.00;85.74;98385.84;4092256;28;20685;-84
2022/07/14 04:08:40;;;;;;;4.97;4.10;;;;;;;18.04;85.22;98393.31;4108701;28;20666;-84
2022/07/14 04:10:45;;;;;;;6.63;3.60;;;;;;;18.07;83.91;98394.81;4124086;28;20665;-84
2022/07/14 04:12:49;;;;;;;7.53;5.57;;;;;;;18.11;84.77;98404.13;4091888;29;20746;-84
2022/07/14 04:14:52;;;;;;;8.17;6.60;;;;;;;18.16;84.43;98399.28;4109337;28;20635;-84
2022/07/14 04:16:55;;;;;;;6.53;4.53;;;;;;;18.21;84.29;98403.16;4090961;28;20715;-84
2022/07/14 04:18:58;;;;;;;8.10;4.33;;;;;;;18.22;84.20;98407.47;4104786;28;20638;-83
2022/07/14 04:21:02;;;;;;;5.97;4.70;;;;;;;18.25;84.83;98412.47;4127840;28;20625;-84
2022/07/14 04:23:07;;;;;;;6.40;4.63;;;;;;;18.26;84.18;98408.84;4124916;28;20644;-83
2022/07/14 04:25:12;;;;;;;7.33;4.70;;;;;;;18.28;84.76;98416.63;4124085;28;20645;-84
2022/07/14 04:27:16;;;;;;;6.70;5.07;;;;;;;18.30;84.51;98409.41;4111374;28;21215;-84
2022/07/14 04:29:19;;;;;;;8.10;5.20;;;;;;;18.33;83.72;98414.38;4121495;28;20679;-83
2022/07/14 04:31:23;;;;;;;6.90;4.03;;;;;;;18.33;83.94;98414.38;4124961;28;21108;-84
2022/07/14 04:33:26;;;;;;;6.57;4.40;;;;;;;18.37;83.33;98405.19;4121938;28;20638;-84
2022/07/14 04:35:29;;;;;;;7.33;5.07;;;;;;;18.38;83.59;98406.88;4124617;28;20688;-83
2022/07/14 04:37:32;;;;;;;5.13;4.33;;;;;;;18.41;83.81;98408.22;4123133;28;20720;-84
2022/07/14 04:39:38;;;;;;;5.73;4.57;;;;;;;18.47;83.37;98412.09;4124604;28;21093;-83
2022/07/14 04:41:43;;;;;;;6.73;4.70;;;;;;;18.50;82.83;98410.00;4109272;28;20758;-84
2022/07/14 04:43:46;;;;;;;6.33;5.47;;;;;;;18.54;82.52;98403.44;4108229;28;21378;-83
2022/07/14 04:45:49;;;;;;;5.77;5.10;;;;;;;18.58;82.80;98407.47;4120622;28;20680;-83
2022/07/14 04:47:52;;;;;;;6.43;3.80;;;;;;;18.61;82.03;98396.63;4125085;28;20641;-83
2022/07/14 04:52:18;;;;;;;5.00;4.40;;;;;;;18.72;82.99;98404.34;4124200;28;21262;-83
2022/07/14 04:54:28;;;;;;;8.97;4.97;;;;;;;18.78;82.24;98406.41;4121771;28;20744;-83
2022/07/14 04:56:55;;;;;;;6.50;4.77;;;;;;;18.85;82.32;98410.09;4103969;28;20661;-83
2022/07/14 04:59:12;;;;;;;8.97;4.80;;;;;;;18.89;82.00;98406.19;4123040;28;20630;-83
2022/07/14 05:01:16;;;;;;;6.63;4.33;;;;;;;18.92;81.66;98412.00;4108954;28;21048;-83
2022/07/14 05:03:20;;;;;;;6.90;4.57;;;;;;;18.98;81.37;98408.75;4125878;28;20630;-83
2022/07/14 05:05:23;;;;;;;7.30;4.27;;;;;;;19.00;81.86;98408.63;4123666;28;20641;-86
2022/07/14 05:07:27;;;;;;;4.93;4.30;;;;;;;19.04;81.16;98416.13;4126750;28;20660;-86
2022/07/14 05:09:33;;;;;;;4.70;3.90;;;;;;;19.09;82.08;98413.91;4127083;28;20638;-86
2022/07/14 05:11:39;;;;;;;8.60;4.77;;;;;;;19.13;80.83;98417.06;4105412;28;21345;-86
2022/07/14 05:13:44;;;;;;;5.80;4.57;;;;;;;19.17;80.49;98415.75;4108846;28;20748;-86
2022/07/14 05:15:47;;;;;;;5.07;4.40;;;;;;;19.25;81.19;98411.41;4123463;28;20657;-86
2022/07/14 05:17:50;;;;;;;5.20;4.50;;;;;;;19.33;81.47;98410.66;4125612;28;20640;-86
2022/07/14 05:19:54;;;;;;;4.70;4.30;;;;;;;19.37;80.04;98417.31;4125550;28;20922;-86
2022/07/14 05:21:57;;;;;;;5.87;4.57;;;;;;;19.44;79.83;98420.03;4108990;28;21311;-86
2022/07/14 05:24:01;;;;;;;5.70;3.93;;;;;;;19.53;80.06;98421.78;4123334;28;20737;-85
2022/07/14 05:26:11;;;;;;;7.33;4.30;;;;;;;19.63;79.55;98419.84;4111281;28;21268;-86
2022/07/14 05:28:14;;;;;;;6.60;4.03;;;;;;;19.73;79.23;98415.31;4111758;28;20704;-90
2022/07/14 05:30:27;;;;;;;5.47;4.10;;;;;;;19.84;79.96;98415.06;4111333;28;20696;-89
2022/07/14 05:32:31;;;;;;;4.43;3.90;;;;;;;19.92;80.12;98409.88;4112370;28;21217;-88
2022/07/14 05:34:41;;;;;;;5.50;4.33;;;;;;;20.00;78.03;98415.25;4129816;28;20723;-91
2022/07/14 05:36:45;;;;;;;5.77;4.23;;;;;;;20.12;79.03;98414.81;4110196;28;20642;-86
2022/07/14 05:38:49;;;;;;;5.30;4.27;;;;;;;20.26;79.36;98406.28;4110164;28;20661;-86
2022/07/14 05:40:52;;;;;;;5.97;4.70;;;;;;;20.43;77.63;98405.41;4109621;28;20650;-86
2022/07/14 05:42:56;;;;;;;6.20;4.47;;;;;;;20.60;77.57;98415.13;4112149;28;20639;-86
2022/07/14 05:44:59;;;;;;;6.70;4.37;;;;;;;20.71;77.68;98413.03;4128862;28;20623;-83
2022/07/14 05:47:03;;;;;;;4.87;4.37;;;;;;;20.82;77.22;98404.78;4132842;28;20631;-83
2022/07/14 05:49:07;;;;;;;6.43;4.80;;;;;;;21.02;76.10;98401.72;4112454;28;20629;-84
2022/07/14 05:51:13;;;;;;;5.90;4.53;;;;;;;21.37;75.83;98399.63;4092689;29;20736;-84
2022/07/14 05:53:18;;;;;;;10.33;4.83;;;;;;;21.75;75.49;98401.66;4126812;28;20683;-84
2022/07/14 05:55:22;;;;;;;5.47;4.87;;;;;;;22.03;76.39;98401.16;4109981;28;20628;-84
2022/07/14 05:57:28;;;;;;;6.60;4.70;;;;;;;22.21;77.01;98404.50;4127359;28;20639;-84
2022/07/14 05:59:31;;;;;;;4.43;4.03;;;;;;;22.48;75.67;98410.25;4116870;28;20649;-85
2022/07/14 06:01:53;;;;;;;4.80;3.80;;;;;;;22.85;72.94;98405.09;4126560;28;21290;-85
2022/07/14 06:03:58;;;;;;;7.23;3.97;;;;;;;23.21;72.32;98420.44;4128073;28;21297;-84
2022/07/14 06:06:02;;;;;;;7.83;4.20;;;;;;;23.53;70.55;98407.75;4123880;28;21445;-85
2022/07/14 06:08:07;;;;;;;4.10;3.57;;;;;;;23.87;69.46;98411.66;4126043;28;21296;-84
2022/07/14 06:10:11;;;;;;;5.07;3.70;;;;;;;24.14;68.91;98410.28;4110983;28;20655;-85
2022/07/14 06:12:15;;;;;;;6.30;4.17;;;;;;;24.37;67.97;98409.22;4109221;28;20662;-85
2022/07/14 06:14:21;;;;;;;4.43;3.70;;;;;;;24.69;67.97;98412.41;4125536;28;20635;-84
2022/07/14 06:16:24;;;;;;;5.03;3.67;;;;;;;25.01;66.18;98404.84;4125343;28;20637;-84
2022/07/14 06:18:27;;;;;;;4.13;3.40;;;;;;;25.17;65.95;98408.13;4113558;28;20639;-84
2022/07/14 06:20:33;;;;;;;5.70;3.80;;;;;;;25.26;66.11;98401.66;4128550;28;21063;-84
2022/07/14 06:22:38;;;;;;;5.80;3.80;;;;;;;25.21;65.25;98401.41;4128034;28;20715;-85
2022/07/14 06:24:42;;;;;;;7.20;4.30;;;;;;;24.98;66.81;98404.34;4123187;28;20633;-86
2022/07/14 06:26:53;;;;;;;10.67;4.00;;;;;;;24.75;66.03;98398.31;4112047;28;20642;-86
2022/07/14 06:28:56;;;;;;;4.40;3.80;;;;;;;24.53;66.58;98398.41;4124176;28;20665;-84
2022/07/14 06:30:59;;;;;;;6.33;3.33;;;;;;;24.42;67.21;98391.69;4122477;28;20625;-85
2022/07/14 06:33:02;;;;;;;6.90;3.20;;;;;;;24.42;67.54;98389.00;4124142;28;20662;-85
2022/07/14 06:35:07;;;;;;;4.20;3.63;;;;;;;24.66;67.47;98391.41;4125680;28;20644;-85
2022/07/14 06:37:13;;;;;;;4.67;3.53;;;;;;;24.69;68.24;98391.84;4111963;28;20685;-86
2022/07/14 06:39:17;;;;;;;6.13;4.00;;;;;;;24.76;67.59;98389.28;4124568;28;20765;-86
2022/07/14 06:41:21;;;;;;;6.30;4.20;;;;;;;24.99;67.42;98390.00;4128279;28;20652;-86
2022/07/14 06:43:25;;;;;;;4.90;3.87;;;;;;;25.23;66.89;98388.69;4112595;28;20652;-86
2022/07/14 06:45:34;;;;;;;6.10;3.70;;;;;;;25.70;65.17;98394.34;4115012;28;20658;-86
2022/07/14 06:47:37;;;;;;;4.70;3.77;;;;;;;26.07;64.85;98394.91;4113688;28;20735;-86
2022/07/14 06:49:41;;;;;;;5.60;3.23;;;;;;;26.47;62.84;98402.22;4110783;28;21696;-85
2022/07/14 06:51:44;;;;;;;5.73;3.27;;;;;;;26.70;62.01;98398.22;4111499;28;20698;-86
2022/07/14 06:53:49;;;;;;;4.47;3.47;;;;;;;26.49;60.39;98400.16;4093129;28;20662;-85
2022/07/14 06:55:52;;;;;;;4.30;2.70;;;;;;;26.35;61.83;98393.06;4124499;28;20647;-86
2022/07/14 06:57:55;;;;;;;3.20;2.87;;;;;;;26.36;61.28;98390.19;4125754;28;22173;-86
2022/07/14 07:00:07;;;;;;;3.13;2.60;;;;;;;26.67;59.64;98390.59;4111028;28;20742;-86
2022/07/14 07:02:10;;;;;;;4.40;2.97;;;;;;;27.00;59.41;98386.25;4093407;28;20694;-86
2022/07/14 07:04:13;;;;;;;8.23;3.70;;;;;;;27.12;57.98;98385.47;4108883;28;21111;-86
2022/07/14 07:08:37;;;;;;;5.60;3.00;;;;;;;27.36;58.89;98383.06;4107684;28;21458;-82
2022/07/14 07:10:42;;;;;;;5.73;2.80;;;;;;;27.37;60.22;98378.56;4108884;28;20690;-89
2022/07/14 07:12:45;;;;;;;5.83;3.10;;;;;;;27.46;61.21;98383.53;4110187;28;20660;-83
2022/07/14 07:14:48;;;;;;;7.80;3.20;;;;;;;27.65;61.51;98377.44;4108342;28;20647;-83
2022/07/14 07:16:52;;;;;;;10.63;3.57;;;;;;;27.98;61.49;98383.63;4124111;28;20639;-83
2022/07/14 07:18:55;;;;;;;5.77;3.20;;;;;;;28.12;62.11;98389.66;4113677;28;21354;-84
2022/07/14 07:20:58;;;;;;;6.07;3.20;;;;;;;28.12;61.61;98386.97;4129552;28;20620;-83
2022/07/14 07:23:01;;;;;;;5.87;3.20;;;;;;;28.04;61.23;98381.78;4118503;28;20632;-83
2022/07/14 07:25:05;;;;;;;3.73;3.10;;;;;;;27.95;61.47;98378.66;4116670;28;20636;-84
2022/07/14 07:27:10;;;;;;;12.77;3.10;;;;;;;28.09;60.75;98384.69;4124145;28;20643;-85
2022/07/14 07:29:13;;;;;;;4.40;3.20;;;;;;;28.41;60.94;98385.72;4107720;28;20636;-85
2022/07/14 07:31:16;;;;;;;4.30;3.30;;;;;;;28.48;60.41;98385.47;4104612;28;20686;-85
2022/07/14 07:33:20;;;;;;;6.13;3.47;;;;;;;28.71;62.62;98382.38;4120173;28;20710;-85
2022/07/14 07:35:23;;;;;;;6.50;3.50;;;;;;;29.11;62.04;98385.53;4111380;28;20728;-85
2022/07/14 07:37:26;;;;;;;5.17;3.30;;;;;;;29.41;59.61;98381.28;4122014;28;20637;-85
2022/07/14 07:39:30;;;;;;;8.93;3.40;;;;;;;29.65;57.98;98380.50;4107904;28;20639;-85
2022/07/14 07:41:34;;;;;;;7.57;3.37;;;;;;;29.89;58.56;98385.97;4114236;28;20644;-85
2022/07/14 07:43:38;;;;;;;5.60;3.03;;;;;;;30.09;57.75;98386.63;4126367;28;20640;-85
2022/07/14 07:45:41;;;;;;;4.47;3.10;;;;;;;30.37;55.10;98381.66;4109653;28;20735;-85
2022/07/14 07:47:44;;;;;;;3.73;2.60;;;;;;;30.43;55.67;98381.56;4112574;28;20645;-85
2022/07/14 07:49:47;;;;;;;5.17;3.30;;;;;;;30.67;56.70;98367.25;4111390;28;20677;-85
2022/07/14 07:51:57;;;;;;;4.10;3.30;;;;;;;31.03;57.40;98370.78;4108536;28;21009;-85
2022/07/14 07:54:00;;;;;;;10.60;3.40;;;;;;;31.41;55.36;98364.94;4125945;28;20655;-85
2022/07/14 07:56:04;;;;;;;5.63;3.03;;;;;;;31.58;54.22;98365.91;4109349;28;20660;-84
2022/07/14 07:58:08;;;;;;;2.97;2.70;;;;;;;31.76;53.41;98359.66;4123996;28;21027;-85
2022/07/14 08:00:14;;;;;;;5.07;3.00;;;;;;;31.95;53.08;98357.50;4123167;28;20681;-85
2022/07/14 08:02:17;;;;;;;7.17;5.20;;;;;;;32.06;53.91;98353.16;4107283;28;20632;-84
2022/07/14 08:04:22;;;;;;;5.80;3.10;;;;;;;32.29;53.44;98362.09;4128102;28;20677;-85
2022/07/14 08:06:25;;;;;;;3.77;2.80;;;;;;;32.49;51.96;98358.03;4127057;28;20686;-85
2022/07/14 08:08:41;;;;;;;4.47;2.73;;;;;;;32.73;50.36;98354.25;4107089;28;20632;-85
2022/07/14 08:10:44;;;;;;;3.03;2.60;;;;;;;32.78;51.89;98354.34;4127497;28;21205;-85
2022/07/14 08:12:48;;;;;;;3.83;2.77;;;;;;;32.73;50.85;98348.00;4127030;28;20631;-85
2022/07/14 08:14:51;;;;;;;2.67;2.47;;;;;;;32.73;49.02;98343.44;4125530;28;20700;-85
2022/07/14 08:16:57;;;;;;;4.00;2.73;;;;;;;32.67;50.95;98333.56;4110485;28;20652;-85
2022/07/14 08:19:00;;;;;;;5.27;2.70;;;;;;;32.75;52.04;98332.34;4108567;28;21345;-85
2022/07/14 08:21:04;;;;;;;4.13;2.70;;;;;;;32.93;50.47;98333.03;4107687;28;20661;-85
2022/07/14 08:23:09;;;;;;;3.30;2.40;;;;;;;32.98;49.47;98330.47;4104702;28;20641;-85
2022/07/14 08:25:12;;;;;;;3.20;2.70;;;;;;;33.10;50.34;98323.94;4107925;28;20660;-85
2022/07/14 08:27:15;;;;;;;2.70;2.50;;;;;;;33.13;50.98;98320.75;4089372;28;20672;-85
2022/07/14 08:29:18;;;;;;;3.03;2.60;;;;;;;33.01;49.81;98319.97;4125790;28;20661;-85
2022/07/14 08:31:22;;;;;;;3.00;2.50;;;;;;;33.21;49.84;98324.97;4121495;28;20710;-85
2022/07/14 08:33:27;;;;;;;3.47;2.50;;;;;;;33.46;50.39;98321.72;4124344;28;20643;-85
2022/07/14 08:35:30;;;;;;;3.20;2.90;;;;;;;33.65;49.56;98314.19;4125249;28;20662;-85
2022/07/14 08:37:34;;;;;;;3.03;2.60;;;;;;;33.83;48.82;98312.91;4125248;28;20654;-85
2022/07/14 08:39:39;;;;;;;3.83;2.50;;;;;;;33.94;48.32;98306.59;4108901;28;20774;-85
2022/07/14 08:41:42;;;;;;;6.60;2.83;;;;;;;34.07;50.23;98316.28;4109250;28;20645;-85
2022/07/14 08:43:46;;;;;;;3.90;2.60;;;;;;;34.11;48.47;98312.84;4109456;28;21271;-85
2022/07/14 08:45:50;;;;;;;3.50;2.80;;;;;;;34.13;47.30;98313.44;4110025;28;20744;-85
2022/07/14 08:47:55;;;;;;;4.20;2.33;;;;;;;33.99;47.11;98301.25;4108769;28;20675;-85
2022/07/14 08:50:00;;;;;;;3.97;2.77;;;;;;;34.05;47.86;98297.56;4124687;28;20702;-85
2022/07/14 08:52:05;;;;;;;2.87;2.50;;;;;;;34.16;48.94;98302.09;4105937;28;20636;-85
2022/07/14 08:54:09;;;;;;;4.93;2.90;;;;;;;34.20;48.24;98295.09;4106953;28;20663;-85
2022/07/14 08:56:12;;;;;;;5.63;2.73;;;;;;;34.26;48.39;98296.81;4107116;28;20652;-85
2022/07/14 08:58:15;;;;;;;3.93;2.87;;;;;;;34.32;47.13;98293.09;4126046;28;20642;-85
2022/07/14 09:00:20;;;;;;;4.23;2.53;;;;;;;34.37;47.10;98290.47;4125741;28;20642;-85
2022/07/14 09:02:23;;;;;;;3.57;2.57;;;;;;;34.37;47.04;98285.88;4127782;28;20642;-85
2022/07/14 09:04:26;;;;;;;4.03;2.40;;;;;;;34.34;46.00;98280.94;4113977;28;21221;-85
2022/07/14 09:06:53;;;;;;;4.00;2.70;;;;;;;34.45;47.85;98281.94;4112481;28;21273;-85
2022/07/14 09:08:57;;;;;;;4.63;2.30;;;;;;;34.51;45.95;98273.63;4091391;28;20653;-85
2022/07/14 09:11:00;;;;;;;2.60;2.30;;;;;;;34.62;45.95;98280.00;4127080;28;22268;-85
2022/07/14 09:13:12;;;;;;;3.60;2.73;;;;;;;34.53;45.27;98270.66;4112104;28;20624;-85
2022/07/14 09:17:35;;;;;;;4.20;2.60;;;;;;;34.60;44.52;98272.13;4130588;28;20637;-85
2022/07/14 09:19:38;;;;;;;2.33;2.13;;;;;;;34.63;44.75;98265.38;4111051;28;20637;-85
2022/07/14 09:21:45;;;;;;;3.50;2.40;;;;;;;34.67;44.60;98275.47;4109452;28;20683;-85
2022/07/14 09:23:49;;;;;;;3.07;1.90;;;;;;;34.71;43.45;98267.66;4095827;28;20621;-85
2022/07/14 09:26:09;;;;;;;3.40;1.83;;;;;;;34.68;42.23;98268.16;4108960;28;20668;-85
2022/07/14 09:28:14;;;;;;;2.57;2.20;;;;;;;34.67;43.31;98270.06;4110973;28;20735;-85
2022/07/14 09:30:21;;;;;;;4.80;2.23;;;;;;;34.76;43.21;98260.38;4127325;28;20670;-85
2022/07/14 09:32:47;;;;;;;4.23;2.20;;;;;;;34.84;43.59;98258.06;4127827;28;20729;-85
2022/07/14 09:35:00;;;;;;;6.70;2.40;;;;;;;34.84;44.11;98249.09;4124612;28;20662;-85
2022/07/14 09:37:12;;;;;;;2.60;2.40;;;;;;;34.73;43.06;98258.16;4122782;28;22864;-86
2022/07/14 09:39:16;;;;;;;7.33;4.00;;;;;;;34.68;45.04;98254.59;4127611;28;20686;-85
2022/07/14 09:41:20;;;;;;;8.57;7.90;;;;;;;34.70;45.40;98249.72;4123663;28;20734;-86
2022/07/14 09:43:24;;;;;;;3.73;2.70;;;;;;;34.77;42.93;98243.03;4111909;28;20694;-86
2022/07/14 09:45:29;;;;;;;6.63;2.50;;;;;;;34.83;42.02;98242.84;4128132;28;20639;-86
2022/07/14 09:47:32;;;;;;;4.40;2.57;;;;;;;34.84;42.32;98249.91;4095414;28;20656;-85
2022/07/14 09:49:37;;;;;;;5.00;2.83;;;;;;;34.89;43.86;98244.56;4125594;28;20664;-85
2022/07/14 09:52:01;;;;;;;3.03;2.43;;;;;;;34.90;44.74;98238.06;4109103;28;20664;-85
2022/07/14 09:54:05;;;;;;;2.67;2.47;;;;;;;34.88;43.09;98236.69;4110523;28;20643;-85
2022/07/14 09:56:11;;;;;;;4.13;3.07;;;;;;;34.95;43.40;98238.13;4110889;28;20699;-86